Time;durP1;ratioP1;P1;durP2;ratioP2;P2;SDS_P1;SDS_P2;PMS_P1;PMS_P2;Temp;Humidity;BMP_temperature;BMP_pressure;BME280_temperature;BME280_humidity;BME280_pressure;Samples;Min_cycle;Max_cycle;Signal;HPM_P1;HPM_P2
2022/07/18 06:18:50;;;;;;;7.07;6.53;;;;;;;;;;6097568;23;20107;31
2022/07/18 06:21:15;;;;;;;7.25;6.60;;;;;;;;;;6127939;23;20022;-80
2022/07/18 09:03:04;;;;;;;12.60;8.55;;;;;;;;;;6186356;23;20403;-90
2022/07/18 09:05:31;;;;;;;9.10;8.20;;;;;;;;;;6164212;23;20024;-96
2022/07/18 09:08:21;;;;;;;9.18;7.75;;;;;;;;;;6197677;23;20005;-94
2022/07/18 09:10:55;;;;;;;8.45;7.55;;;;;;;;;;6189085;23;20032;-91
2022/07/18 09:13:34;;;;;;;9.30;7.53;;;;;;;;;;6162426;23;20451;-91
2022/07/18 09:16:10;;;;;;;8.88;7.88;;;;;;;;;;6163266;23;20013;-91
2022/07/18 09:18:37;;;;;;;8.55;7.43;;;;;;;;;;6162762;23;20009;-90
2022/07/18 09:21:10;;;;;;;9.27;8.38;;;;;;;;;;6162157;23;20012;-90
2022/07/18 09:23:38;;;;;;;11.00;7.65;;;;;;;;;;6163510;23;20005;-90
2022/07/18 09:26:05;;;;;;;8.70;7.80;;;;;;;;;;6188202;23;20012;-91
2022/07/18 09:28:47;;;;;;;8.27;7.47;;;;;;;;;;6188039;23;20388;-89
2022/07/18 09:31:27;;;;;;;9.63;8.30;;;;;;;;;;6188681;23;20494;-88
2022/07/18 09:33:57;;;;;;;8.90;8.10;;;;;;;;;;6188376;23;21844;-88
2022/07/18 09:36:23;;;;;;;10.90;8.75;;;;;;;;;;6161537;23;20009;-89
2022/07/18 09:38:49;;;;;;;9.43;8.27;;;;;;;;;;6161486;23;20013;-89
2022/07/18 09:41:15;;;;;;;9.00;8.10;;;;;;;;;;6187953;23;20368;-89
2022/07/18 09:43:41;;;;;;;8.88;8.15;;;;;;;;;;6188429;23;20005;-90
2022/07/18 09:46:07;;;;;;;10.50;8.07;;;;;;;;;;6162071;23;20009;-88
2022/07/18 09:48:33;;;;;;;11.35;8.15;;;;;;;;;;6188495;23;20001;-94
2022/07/18 09:51:05;;;;;;;11.75;7.65;;;;;;;;;;6189135;23;20028;-91
2022/07/18 09:53:32;;;;;;;9.75;7.70;;;;;;;;;;6163316;23;20381;-91
2022/07/18 09:56:22;;;;;;;8.07;7.25;;;;;;;;;;6188711;23;20001;-92
2022/07/18 09:58:53;;;;;;;9.65;8.00;;;;;;;;;;6189433;23;20325;-89
2022/07/18 10:01:19;;;;;;;8.63;7.72;;;;;;;;;;6191379;23;20005;-91
2022/07/18 10:03:44;;;;;;;8.27;7.07;;;;;;;;;;6189456;23;20035;-88
2022/07/18 10:06:10;;;;;;;8.98;6.88;;;;;;;;;;6187623;23;20001;-88
2022/07/18 10:08:36;;;;;;;12.50;7.18;;;;;;;;;;6162468;23;20004;-89
2022/07/18 10:11:05;;;;;;;7.25;6.55;;;;;;;;;;6163282;23;20020;-93
2022/07/18 10:13:32;;;;;;;9.20;6.28;;;;;;;;;;6189837;23;20005;-89
2022/07/18 10:15:58;;;;;;;11.70;7.05;;;;;;;;;;6187442;23;20360;-91
2022/07/18 10:18:27;;;;;;;13.15;6.82;;;;;;;;;;6162532;23;20340;-88
2022/07/18 10:21:01;;;;;;;6.43;5.72;;;;;;;;;;6187160;23;20385;-89
2022/07/18 10:23:31;;;;;;;9.90;6.70;;;;;;;;;;6187562;23;20020;-90
2022/07/18 10:26:06;;;;;;;9.25;6.55;;;;;;;;;;6161369;23;20429;-90
2022/07/18 10:28:31;;;;;;;7.05;6.35;;;;;;;;;;6188306;23;20421;-89
2022/07/18 10:31:13;;;;;;;9.02;7.05;;;;;;;;;;6188334;23;20007;-91
2022/07/18 10:33:40;;;;;;;7.53;6.45;;;;;;;;;;6161531;23;20351;-93
2022/07/18 10:36:12;;;;;;;8.88;6.65;;;;;;;;;;6161635;23;20028;-91
2022/07/18 10:38:38;;;;;;;8.02;6.28;;;;;;;;;;6160674;23;20084;-92
2022/07/18 10:41:05;;;;;;;7.05;6.35;;;;;;;;;;6188486;23;20008;-88
2022/07/18 10:43:31;;;;;;;7.10;6.40;;;;;;;;;;6162903;23;20451;-94
2022/07/18 10:45:57;;;;;;;9.10;7.20;;;;;;;;;;6160849;23;20009;-89
2022/07/18 10:48:35;;;;;;;7.40;6.80;;;;;;;;;;6187075;23;20012;-91
2022/07/18 10:51:10;;;;;;;6.97;6.35;;;;;;;;;;6160658;23;20009;-92
2022/07/18 10:53:54;;;;;;;9.65;7.25;;;;;;;;;;6160769;23;20336;-89
2022/07/18 10:56:29;;;;;;;9.55;6.97;;;;;;;;;;6188261;23;20012;-91
2022/07/18 10:58:58;;;;;;;7.60;6.80;;;;;;;;;;6187395;23;20009;-89
2022/07/18 11:01:26;;;;;;;10.68;6.88;;;;;;;;;;6186891;23;20005;-88
2022/07/18 11:04:23;;;;;;;7.18;6.40;;;;;;;;;;6187039;23;20009;-87
2022/07/18 11:07:13;;;;;;;7.60;6.90;;;;;;;;;;6188445;23;20080;-89
2022/07/18 11:09:44;;;;;;;6.97;6.20;;;;;;;;;;6186872;23;20005;-93
2022/07/18 11:12:19;;;;;;;7.80;6.20;;;;;;;;;;6186992;23;20005;-89
2022/07/18 11:15:07;;;;;;;12.68;6.75;;;;;;;;;;6160207;23;20013;-86
2022/07/18 11:17:51;;;;;;;9.75;7.03;;;;;;;;;;6186600;23;20001;-87
2022/07/18 11:20:38;;;;;;;8.80;6.40;;;;;;;;;;6160205;23;20325;-88
2022/07/18 11:23:14;;;;;;;13.70;7.05;;;;;;;;;;6186966;23;20005;-90
2022/07/18 11:25:40;;;;;;;8.07;6.53;;;;;;;;;;6186799;23;20008;-90
2022/07/18 11:28:12;;;;;;;9.00;7.03;;;;;;;;;;6186421;23;20001;-89
2022/07/18 17:15:38;;;;;;;8.18;7.38;;;;;;;;;;6195106;23;20032;-93
2022/07/18 17:18:04;;;;;;;8.07;7.25;;;;;;;;;;6223186;23;20012;-91
2022/07/18 17:20:30;;;;;;;8.10;7.32;;;;;;;;;;6220601;23;20060;-91
2022/07/18 17:22:57;;;;;;;8.35;7.60;;;;;;;;;;6180099;23;20077;-90
2022/07/18 17:25:24;;;;;;;8.68;7.32;;;;;;;;;;6188627;23;20328;-95
2022/07/18 17:27:50;;;;;;;8.05;7.35;;;;;;;;;;6162214;23;19997;-95
2022/07/18 17:30:16;;;;;;;7.75;7.05;;;;;;;;;;6163237;23;20001;-93
2022/07/18 17:32:42;;;;;;;8.70;7.90;;;;;;;;;;6189254;23;20012;-93
2022/07/18 17:35:09;;;;;;;7.55;6.85;;;;;;;;;;6188584;23;20009;-90
2022/07/18 17:37:43;;;;;;;8.02;7.28;;;;;;;;;;6189869;23;20017;-92
2022/07/18 17:40:09;;;;;;;8.05;7.35;;;;;;;;;;6193663;23;20025;-91
2022/07/18 17:42:35;;;;;;;8.07;7.30;;;;;;;;;;6192169;23;20008;-91
2022/07/18 17:45:02;;;;;;;9.00;8.07;;;;;;;;;;6163778;23;20009;-91
2022/07/18 17:47:31;;;;;;;8.25;7.55;;;;;;;;;;6193204;23;20043;-93
2022/07/18 17:49:57;;;;;;;8.13;7.38;;;;;;;;;;6192227;23;20029;-91
2022/07/18 17:52:23;;;;;;;8.73;7.93;;;;;;;;;;6193183;23;20033;-92
2022/07/18 17:54:48;;;;;;;8.32;7.53;;;;;;;;;;6188001;23;20005;-88
2022/07/18 17:57:14;;;;;;;8.23;7.10;;;;;;;;;;6187630;23;20323;-90
2022/07/18 17:59:41;;;;;;;7.82;7.13;;;;;;;;;;6187469;23;20441;-89
2022/07/18 18:02:07;;;;;;;7.78;7.07;;;;;;;;;;6187441;23;20001;-89
2022/07/18 18:04:32;;;;;;;8.77;7.63;;;;;;;;;;6188043;23;20001;-90
2022/07/18 18:06:58;;;;;;;8.55;7.75;;;;;;;;;;6188246;23;20001;-91
2022/07/18 18:09:23;;;;;;;8.10;7.38;;;;;;;;;;6161024;23;20001;-90
2022/07/18 18:11:49;;;;;;;8.50;7.80;;;;;;;;;;6190227;23;20001;-94
2022/07/18 18:14:14;;;;;;;9.07;8.23;;;;;;;;;;6165540;23;20013;-90
2022/07/18 18:16:41;;;;;;;10.98;8.85;;;;;;;;;;6160793;23;20013;-89
2022/07/18 18:19:06;;;;;;;9.45;8.65;;;;;;;;;;6187213;23;20009;-90
2022/07/18 18:21:32;;;;;;;9.13;8.23;;;;;;;;;;6187628;23;20102;-90
2022/07/18 18:23:57;;;;;;;8.93;8.20;;;;;;;;;;6186927;23;20011;-90
2022/07/18 18:26:22;;;;;;;8.98;7.85;;;;;;;;;;6187342;23;20031;-90
2022/07/18 18:28:49;;;;;;;8.50;7.75;;;;;;;;;;6187203;23;20329;-90
2022/07/18 18:31:15;;;;;;;8.70;7.90;;;;;;;;;;6161343;23;20092;-92
2022/07/18 18:33:40;;;;;;;8.20;7.40;;;;;;;;;;6188064;23;19997;-91
2022/07/18 18:36:09;;;;;;;9.10;8.20;;;;;;;;;;6160861;23;20013;-91
2022/07/18 18:38:34;;;;;;;8.52;7.80;;;;;;;;;;6187358;23;20001;-91
2022/07/18 18:41:00;;;;;;;8.05;7.35;;;;;;;;;;6160641;23;20421;-91
2022/07/18 18:43:26;;;;;;;8.40;7.50;;;;;;;;;;6186810;23;19997;-90
2022/07/18 18:45:52;;;;;;;9.68;7.90;;;;;;;;;;6186905;23;20005;-92
2022/07/18 18:48:18;;;;;;;8.80;8.00;;;;;;;;;;6187474;23;20005;-91
2022/07/18 18:50:43;;;;;;;9.38;8.48;;;;;;;;;;6186999;23;20032;-91
2022/07/18 18:53:09;;;;;;;9.95;9.15;;;;;;;;;;6187093;23;20005;-91
2022/07/18 18:55:34;;;;;;;9.55;8.75;;;;;;;;;;6186874;23;20001;-90
2022/07/18 18:58:00;;;;;;;10.73;9.75;;;;;;;;;;6187186;23;20001;-92
2022/07/18 19:00:25;;;;;;;10.10;8.35;;;;;;;;;;6187395;23;20301;-91
2022/07/18 19:02:52;;;;;;;8.63;7.90;;;;;;;;;;6187080;23;20064;-93
2022/07/18 19:05:20;;;;;;;8.95;8.10;;;;;;;;;;6187050;23;20423;-90
2022/07/18 19:07:46;;;;;;;12.23;11.02;;;;;;;;;;6185782;23;20035;-93
2022/07/18 19:10:12;;;;;;;10.48;9.48;;;;;;;;;;6160780;23;20001;-90
2022/07/18 19:12:37;;;;;;;10.95;9.98;;;;;;;;;;6186960;23;20349;-90
2022/07/18 19:15:04;;;;;;;9.10;8.13;;;;;;;;;;6186645;23;20012;-90
2022/07/18 19:17:30;;;;;;;8.07;7.38;;;;;;;;;;6159948;23;20020;-89
2022/07/18 19:19:55;;;;;;;10.73;9.63;;;;;;;;;;6186784;23;20005;-90
2022/07/18 19:22:21;;;;;;;9.68;8.77;;;;;;;;;;6186545;23;20055;-90
2022/07/18 19:24:46;;;;;;;9.05;8.25;;;;;;;;;;6188731;23;20055;-92
2022/07/18 19:27:12;;;;;;;9.55;8.20;;;;;;;;;;6187904;23;20072;-91
2022/07/18 19:29:38;;;;;;;8.80;7.90;;;;;;;;;;6160675;23;20009;-91
2022/07/18 19:32:05;;;;;;;8.40;7.60;;;;;;;;;;6160397;23;20005;-91
2022/07/18 19:34:30;;;;;;;8.77;7.85;;;;;;;;;;6187349;23;20432;-93
2022/07/18 19:36:56;;;;;;;8.43;7.72;;;;;;;;;;6160656;23;20001;-91
2022/07/18 19:39:22;;;;;;;8.70;7.80;;;;;;;;;;6161194;23;20036;-92
2022/07/18 19:41:48;;;;;;;10.13;8.07;;;;;;;;;;6161594;23;20005;-93
2022/07/18 19:44:13;;;;;;;8.20;7.47;;;;;;;;;;6162153;23;20008;-92
2022/07/18 19:46:39;;;;;;;7.90;7.10;;;;;;;;;;6188307;23;20005;-93
2022/07/18 19:49:05;;;;;;;8.60;7.80;;;;;;;;;;6161500;23;20373;-96
2022/07/18 19:51:31;;;;;;;8.93;8.02;;;;;;;;;;6162162;23;20008;-93
2022/07/18 19:53:56;;;;;;;8.60;7.75;;;;;;;;;;6189453;23;20024;-92
2022/07/18 19:56:22;;;;;;;8.63;7.93;;;;;;;;;;6194061;23;19997;-94
2022/07/18 19:58:47;;;;;;;9.45;8.48;;;;;;;;;;6164923;23;20428;-94
2022/07/18 20:01:13;;;;;;;8.90;8.13;;;;;;;;;;6192382;23;20005;-92
2022/07/18 20:03:43;;;;;;;8.25;7.47;;;;;;;;;;6164390;23;20016;-92
2022/07/18 20:06:09;;;;;;;8.40;7.63;;;;;;;;;;6165135;23;20015;-92
2022/07/18 20:08:34;;;;;;;10.05;8.23;;;;;;;;;;6165634;23;20009;-92
2022/07/18 20:11:01;;;;;;;8.80;8.10;;;;;;;;;;6189684;23;20305;-91
2022/07/18 20:13:26;;;;;;;8.98;8.18;;;;;;;;;;6139074;23;20148;-91
2022/07/18 20:15:53;;;;;;;7.97;7.28;;;;;;;;;;6189667;23;20021;-91
2022/07/18 20:18:18;;;;;;;8.30;7.50;;;;;;;;;;6189642;23;20502;-90
2022/07/18 20:20:43;;;;;;;9.40;8.60;;;;;;;;;;6162838;23;20005;-89
2022/07/18 20:23:09;;;;;;;8.73;7.93;;;;;;;;;;6189244;23;20001;-96
2022/07/18 20:25:35;;;;;;;8.38;7.68;;;;;;;;;;6193267;23;20054;-95
2022/07/18 20:28:01;;;;;;;8.77;7.88;;;;;;;;;;6189106;23;20080;-89
2022/07/18 20:30:27;;;;;;;8.98;8.13;;;;;;;;;;6190037;23;20333;-91
2022/07/18 20:32:53;;;;;;;10.02;9.05;;;;;;;;;;6161152;23;20020;-90
2022/07/18 20:35:19;;;;;;;9.07;8.20;;;;;;;;;;6186756;23;20020;-93
2022/07/18 20:37:46;;;;;;;8.90;8.13;;;;;;;;;;6160875;23;20009;-90
2022/07/18 20:40:13;;;;;;;8.82;8.13;;;;;;;;;;6187654;23;19993;-90
2022/07/18 20:42:39;;;;;;;9.35;8.55;;;;;;;;;;6186919;23;20243;-91
2022/07/18 20:45:06;;;;;;;9.00;8.10;;;;;;;;;;6187173;23;20040;-91
2022/07/18 20:47:33;;;;;;;9.13;8.23;;;;;;;;;;6189872;23;20027;-89
2022/07/18 20:49:59;;;;;;;8.20;7.50;;;;;;;;;;6191566;23;20055;-93
2022/07/18 20:52:25;;;;;;;8.55;7.85;;;;;;;;;;6189545;23;20075;-89
2022/07/18 20:54:50;;;;;;;9.07;8.25;;;;;;;;;;6190573;23;20145;-95
2022/07/18 20:57:16;;;;;;;9.18;8.07;;;;;;;;;;6190065;23;19997;-88
2022/07/18 20:59:45;;;;;;;8.68;7.97;;;;;;;;;;6189897;23;20008;-92
2022/07/18 21:02:10;;;;;;;;;;;;;;;;;;6165291;23;20009;-89
2022/07/18 21:04:36;;;;;;;9.15;8.27;;;;;;;;;;6189416;23;20234;-94
2022/07/18 21:07:01;;;;;;;9.48;8.60;;;;;;;;;;6188860;23;20001;-92
2022/07/18 21:09:28;;;;;;;9.60;8.73;;;;;;;;;;6191706;23;20047;-91
2022/07/18 21:11:54;;;;;;;9.70;8.80;;;;;;;;;;6164624;23;20035;-92
2022/07/18 21:17:05;;;;;;;9.50;8.70;;;;;;;;;;6188775;23;20093;-92
2022/07/18 21:19:30;;;;;;;9.20;8.30;;;;;;;;;;6162458;23;20044;-93
2022/07/18 21:21:56;;;;;;;9.10;8.30;;;;;;;;;;6189097;23;19993;-92
2022/07/18 21:24:21;;;;;;;9.10;7.50;;;;;;;;;;6162230;23;20012;-92
2022/07/18 21:26:47;;;;;;;9.50;8.60;;;;;;;;;;6162100;23;20009;-92
2022/07/18 21:29:12;;;;;;;8.40;7.60;;;;;;;;;;6162016;23;20055;-92
2022/07/18 21:31:38;;;;;;;9.10;8.30;;;;;;;;;;6188724;23;20356;-93
2022/07/18 21:34:03;;;;;;;8.43;7.78;;;;;;;;;;6186651;23;20071;-89
2022/07/18 21:36:30;;;;;;;10.30;8.50;;;;;;;;;;6188086;23;20009;-90
2022/07/18 21:38:56;;;;;;;9.32;7.95;;;;;;;;;;6187996;23;20001;-90
2022/07/18 21:41:22;;;;;;;8.32;7.63;;;;;;;;;;6188450;23;20008;-91
2022/07/18 21:43:47;;;;;;;8.70;7.88;;;;;;;;;;6188428;23;19997;-90
2022/07/18 21:46:13;;;;;;;8.75;7.90;;;;;;;;;;6188193;23;20060;-90
2022/07/18 21:48:38;;;;;;;8.98;8.18;;;;;;;;;;6186740;23;20032;-92
2022/07/18 21:51:03;;;;;;;8.80;7.70;;;;;;;;;;6188571;23;20039;-91
2022/07/18 21:53:29;;;;;;;7.70;7.10;;;;;;;;;;6188166;23;20001;-90
2022/07/18 21:55:54;;;;;;;7.85;7.15;;;;;;;;;;6186306;23;20447;-91
2022/07/18 21:58:20;;;;;;;9.10;8.10;;;;;;;;;;6188137;23;20009;-91
2022/07/18 22:00:45;;;;;;;8.80;7.90;;;;;;;;;;6161745;23;20005;-91
2022/07/18 22:03:12;;;;;;;8.48;7.13;;;;;;;;;;6186504;23;20970;-90
2022/07/18 22:05:38;;;;;;;8.52;7.55;;;;;;;;;;6186235;23;20009;-88
2022/07/18 22:08:04;;;;;;;8.00;7.30;;;;;;;;;;6161206;23;20337;-89
